Time;durP1;ratioP1;P1;durP2;ratioP2;P2;SDS_P1;SDS_P2;PMS_P1;PMS_P2;Temp;Humidity;BMP_temperature;BMP_pressure;BME280_temperature;BME280_humidity;BME280_pressure;Samples;Min_cycle;Max_cycle;Signal;HPM_P1;HPM_P2
2021/12/07 00:01:11;;;;;;;37.67;21.90;;;0.00;99.90;;;;;;5018554;28;20170;-83
2021/12/07 00:03:37;;;;;;;41.40;22.60;;;0.10;99.90;;;;;;5016568;28;20186;-83
2021/12/07 00:06:04;;;;;;;42.23;22.93;;;0.10;99.90;;;;;;5025710;28;20555;-84
2021/12/07 00:08:29;;;;;;;38.57;22.60;;;0.10;99.90;;;;;;5028033;28;20239;-83
2021/12/07 00:10:56;;;;;;;40.20;22.70;;;0.10;99.90;;;;;;5018782;28;20210;-83
2021/12/07 00:13:24;;;;;;;38.53;23.37;;;0.10;99.90;;;;;;5018856;28;20273;-81
2021/12/07 00:15:50;;;;;;;37.73;22.27;;;0.10;99.90;;;;;;5018694;28;20665;-82
2021/12/07 00:18:16;;;;;;;39.53;23.27;;;0.00;99.90;;;;;;5013217;28;20718;-82
2021/12/07 00:20:42;;;;;;;40.37;23.63;;;0.00;99.90;;;;;;5015060;28;20209;-81
2021/12/07 00:23:09;;;;;;;38.87;22.93;;;0.00;99.90;;;;;;5021077;28;20174;-81
2021/12/07 00:25:36;;;;;;;38.27;22.70;;;0.10;99.90;;;;;;5020456;28;20201;-81
2021/12/07 00:28:03;;;;;;;41.03;23.93;;;0.10;99.90;;;;;;5017936;28;20646;-82
2021/12/07 00:30:32;;;;;;;37.77;22.97;;;0.10;99.90;;;;;;5019399;28;20194;-82
2021/12/07 00:33:14;;;;;;;39.60;22.57;;;0.10;99.90;;;;;;5033761;28;20177;-82
2021/12/07 00:35:40;;;;;;;43.83;24.53;;;0.10;99.90;;;;;;5019276;28;20229;-82
2021/12/07 00:38:13;;;;;;;40.17;24.10;;;0.00;99.90;;;;;;5018946;28;20210;-79
2021/12/07 00:40:40;;;;;;;43.23;23.80;;;0.00;99.90;;;;;;5019437;28;20242;-82
2021/12/07 00:43:08;;;;;;;40.07;23.63;;;0.10;99.90;;;;;;5031931;28;20181;-81
2021/12/07 00:45:35;;;;;;;41.23;23.93;;;0.10;99.90;;;;;;5021374;28;20181;-82
2021/12/07 00:48:06;;;;;;;36.33;22.50;;;0.10;99.90;;;;;;5020416;28;20182;-80
2021/12/07 00:50:34;;;;;;;37.57;23.57;;;0.10;99.90;;;;;;5019551;28;20181;-81
2021/12/07 00:53:05;;;;;;;41.63;23.83;;;0.00;99.90;;;;;;5048715;28;20213;-82
2021/12/07 00:55:35;;;;;;;41.33;24.10;;;0.00;99.90;;;;;;5028798;28;20201;-82
2021/12/07 00:58:11;;;;;;;42.27;24.03;;;0.00;99.90;;;;;;5022228;28;20192;-80
2021/12/07 01:00:37;;;;;;;42.40;24.13;;;0.00;99.90;;;;;;5026643;28;20194;-81
2021/12/07 01:03:03;;;;;;;41.80;24.17;;;0.00;99.90;;;;;;5025585;28;20189;-82
2021/12/07 01:05:33;;;;;;;43.60;24.00;;;0.00;99.90;;;;;;5027500;28;20178;-80
2021/12/07 01:27:04;;;;;;;42.33;25.17;;;0.10;99.90;;;;;;5048210;28;20191;-82
2021/12/07 01:29:31;;;;;;;43.53;25.00;;;0.00;99.90;;;;;;5032941;28;20171;-81
2021/12/07 01:32:32;;;;;;;41.60;24.30;;;0.00;99.90;;;;;;5032609;28;20178;-82
2021/12/07 01:35:22;;;;;;;41.03;24.40;;;0.10;99.90;;;;;;5049411;28;20190;-82
2021/12/07 01:37:56;;;;;;;47.00;26.37;;;0.10;99.90;;;;;;5046045;28;20267;-81
2021/12/07 01:59:35;;;;;;;47.07;25.90;;;0.00;99.90;;;;;;5040011;28;20246;-82
2021/12/07 02:02:05;;;;;;;43.50;25.77;;;0.00;99.90;;;;;;5014306;28;20190;-83
2021/12/07 02:04:32;;;;;;;44.27;25.97;;;0.00;99.90;;;;;;5027660;28;20256;-82
2021/12/07 02:06:58;;;;;;;47.87;26.30;;;0.00;99.90;;;;;;5032891;28;20182;-83
2021/12/07 02:09:25;;;;;;;45.40;26.60;;;0.00;99.90;;;;;;5020386;28;20174;-83
2021/12/07 02:11:59;;;;;;;44.00;24.73;;;0.00;99.90;;;;;;5031165;28;20217;-83
2021/12/07 02:14:25;;;;;;;46.97;26.67;;;0.10;99.90;;;;;;5021105;28;20166;-83
2021/12/07 02:16:57;;;;;;;45.47;25.53;;;0.10;99.90;;;;;;5023271;28;20186;-83
2021/12/07 02:19:24;;;;;;;46.37;26.83;;;0.10;99.90;;;;;;5020895;28;20171;-83
2021/12/07 02:21:52;;;;;;;45.00;24.43;;;0.10;99.90;;;;;;5016676;28;20614;-83
2021/12/07 02:24:25;;;;;;;44.83;25.27;;;0.20;99.90;;;;;;5022283;28;20181;-82
2021/12/07 02:26:51;;;;;;;43.30;26.07;;;0.20;99.90;;;;;;5029862;28;20205;-82
2021/12/07 02:29:19;;;;;;;45.43;26.00;;;0.30;99.90;;;;;;5022460;28;20506;-82
2021/12/07 02:31:55;;;;;;;43.23;25.83;;;0.20;99.90;;;;;;5017447;28;20189;-83
2021/12/07 02:34:23;;;;;;;41.50;23.83;;;0.30;99.90;;;;;;5012834;28;20170;-83
2021/12/07 02:36:50;;;;;;;43.77;25.40;;;0.30;99.90;;;;;;5022670;28;20584;-81
2021/12/07 02:39:17;;;;;;;44.63;24.63;;;0.40;99.90;;;;;;5020942;28;20242;-81
2021/12/07 02:41:43;;;;;;;41.67;25.20;;;0.30;99.90;;;;;;5021211;28;20202;-81
2021/12/07 02:44:11;;;;;;;40.20;24.73;;;0.40;99.90;;;;;;5029685;28;20202;-81
2021/12/07 02:46:38;;;;;;;45.30;26.07;;;0.30;99.90;;;;;;5032840;28;20183;-79
2021/12/07 02:49:05;;;;;;;44.07;25.87;;;0.20;99.90;;;;;;5030632;28;20175;-81
2021/12/07 02:51:32;;;;;;;40.07;23.87;;;0.20;99.90;;;;;;5053317;28;20175;-81
2021/12/07 02:53:58;;;;;;;45.60;25.37;;;0.30;99.90;;;;;;5025192;28;20206;-80
2021/12/07 02:56:24;;;;;;;41.73;24.07;;;0.30;99.90;;;;;;5035964;28;20233;-82
2021/12/07 02:58:55;;;;;;;42.93;25.30;;;0.30;99.90;;;;;;5038154;28;20185;-81
2021/12/07 03:01:26;;;;;;;47.70;27.37;;;0.30;99.90;;;;;;5035730;28;20175;-82
2021/12/07 03:04:12;;;;;;;42.33;25.13;;;0.30;99.90;;;;;;5036239;28;20174;-81
2021/12/07 03:09:52;;;;;;;45.07;25.83;;;0.30;99.90;;;;;;5040760;28;20234;-80
2021/12/07 03:25:57;;;;;;;47.87;26.73;;;0.20;99.90;;;;;;5063016;28;20198;-82
2021/12/07 03:26:24;;;;;;;44.97;25.63;;;0.20;99.90;;;;;;5056270;28;20289;-82
2021/12/07 03:28:54;;;;;;;43.93;26.40;;;0.20;99.90;;;;;;5056115;28;20170;-83
2021/12/07 03:31:25;;;;;;;45.20;27.03;;;0.10;99.90;;;;;;5026597;28;20170;-82
2021/12/07 03:33:53;;;;;;;49.53;26.67;;;0.10;99.90;;;;;;5025167;28;20171;-82
2021/12/07 03:36:20;;;;;;;45.60;26.20;;;0.10;99.90;;;;;;5026218;28;20243;-82
2021/12/07 03:38:47;;;;;;;47.43;27.97;;;0.10;99.90;;;;;;5027131;28;20332;-80
2021/12/07 03:41:13;;;;;;;48.70;27.80;;;0.20;99.90;;;;;;5026898;28;20566;-80
2021/12/07 03:43:39;;;;;;;49.70;27.70;;;0.10;99.90;;;;;;5023063;28;20214;-80
2021/12/07 03:46:06;;;;;;;49.17;28.13;;;0.10;99.90;;;;;;5046245;28;20593;-79
2021/12/07 03:48:32;;;;;;;47.93;26.93;;;0.10;99.90;;;;;;5026454;28;20201;-80
2021/12/07 03:50:58;;;;;;;47.00;26.97;;;0.20;99.90;;;;;;5031497;28;20178;-80
2021/12/07 03:53:24;;;;;;;46.90;26.37;;;0.10;99.90;;;;;;5032554;28;20194;-80
2021/12/07 03:55:50;;;;;;;43.70;26.07;;;0.10;99.90;;;;;;5040654;28;20223;-83
2021/12/07 03:58:16;;;;;;;49.30;25.47;;;0.10;99.90;;;;;;5032625;28;20201;-80
2021/12/07 04:00:44;;;;;;;49.47;27.20;;;0.30;99.90;;;;;;5026454;28;20179;-81
2021/12/07 04:03:14;;;;;;;44.70;26.13;;;0.30;99.90;;;;;;5033455;28;20202;-80
2021/12/07 04:05:49;;;;;;;44.23;25.90;;;0.30;99.90;;;;;;5031653;28;20174;-79
2021/12/07 04:08:22;;;;;;;46.93;27.10;;;0.30;99.90;;;;;;5024591;28;20168;-79
2021/12/07 04:10:50;;;;;;;45.70;26.60;;;0.30;99.90;;;;;;5019576;28;20260;-80
2021/12/07 04:13:15;;;;;;;47.57;27.63;;;0.30;99.90;;;;;;5024664;28;20170;-80
2021/12/07 04:15:41;;;;;;;49.90;25.70;;;0.30;99.90;;;;;;5031311;28;20297;-79
2021/12/07 04:18:07;;;;;;;50.20;26.70;;;0.30;99.90;;;;;;5024551;28;20170;-80
2021/12/07 04:20:36;;;;;;;45.70;27.03;;;0.30;99.90;;;;;;5020411;28;20181;-80
2021/12/07 04:23:03;;;;;;;50.10;27.80;;;0.20;99.90;;;;;;5018328;28;20173;-79
2021/12/07 04:25:29;;;;;;;49.10;26.87;;;0.20;99.90;;;;;;5014033;28;20209;-80
2021/12/07 04:27:55;;;;;;;44.43;25.67;;;0.30;99.90;;;;;;5032297;28;20190;-80
2021/12/07 04:30:25;;;;;;;48.63;27.20;;;0.30;99.90;;;;;;5043382;28;20249;-81
2021/12/07 04:32:52;;;;;;;46.23;27.33;;;0.30;99.90;;;;;;5031018;28;20207;-80
2021/12/07 04:35:19;;;;;;;46.27;26.37;;;0.40;99.90;;;;;;5043113;28;20202;-80
2021/12/07 04:37:45;;;;;;;46.87;26.27;;;0.50;99.90;;;;;;5029546;28;20218;-80
2021/12/07 04:40:15;;;;;;;46.57;27.30;;;0.50;99.90;;;;;;5027571;28;20200;-80
2021/12/07 04:42:42;;;;;;;44.50;26.67;;;0.50;99.90;;;;;;5022666;28;20258;-80
2021/12/07 04:45:12;;;;;;;46.03;26.17;;;0.40;99.90;;;;;;5022702;28;20242;-80
2021/12/07 04:48:07;;;;;;;46.17;26.63;;;0.30;99.90;;;;;;5019400;28;20217;-80
2021/12/07 04:58:26;;;;;;;49.73;27.37;;;0.40;99.90;;;;;;5034465;28;20177;-77
2021/12/07 05:00:52;;;;;;;49.97;27.50;;;0.40;99.90;;;;;;5018088;28;20260;-79
2021/12/07 05:03:18;;;;;;;49.23;27.63;;;0.50;99.90;;;;;;5017908;28;20205;-79
2021/12/07 05:05:48;;;;;;;46.23;26.63;;;0.50;99.90;;;;;;5029726;28;20208;-79
2021/12/07 05:08:18;;;;;;;44.43;26.60;;;0.50;99.90;;;;;;5015042;28;20182;-79
2021/12/07 05:16:29;;;;;;;49.77;26.67;;;0.40;99.90;;;;;;5026670;28;20198;-79
2021/12/07 05:19:16;;;;;;;49.20;27.37;;;0.50;99.90;;;;;;5016181;28;20177;-80
2021/12/07 05:24:27;;;;;;;49.40;26.93;;;0.40;99.90;;;;;;5016107;28;20654;-78
2021/12/07 05:40:08;;;;;;;44.07;24.60;;;0.40;99.90;;;;;;5018198;28;20175;-80
2021/12/07 05:42:39;;;;;;;45.43;26.53;;;0.50;99.90;;;;;;5015586;28;20175;-79
2021/12/07 05:45:09;;;;;;;45.77;26.60;;;0.60;99.90;;;;;;5025923;28;20182;-79
2021/12/07 05:47:35;;;;;;;42.73;24.67;;;0.60;99.90;;;;;;5031187;28;20202;-79
2021/12/07 05:50:02;;;;;;;46.33;25.27;;;0.60;99.90;;;;;;5017536;28;20174;-80
2021/12/07 05:52:28;;;;;;;46.80;26.60;;;0.60;99.90;;;;;;5019231;28;20178;-79
2021/12/07 05:54:53;;;;;;;44.53;24.30;;;0.60;99.90;;;;;;5015684;28;20205;-79
2021/12/07 05:57:20;;;;;;;42.10;24.43;;;0.50;99.90;;;;;;5015506;28;20201;-79
2021/12/07 05:59:51;;;;;;;43.70;24.77;;;0.60;99.90;;;;;;5014616;28;20175;-79
2021/12/07 06:02:16;;;;;;;45.93;25.37;;;0.60;99.90;;;;;;5018019;28;20171;-79
2021/12/07 06:04:42;;;;;;;43.70;25.53;;;0.60;99.90;;;;;;5018024;28;20227;-79
2021/12/07 06:07:10;;;;;;;47.57;26.17;;;0.50;99.90;;;;;;5014531;28;20187;-78
2021/12/07 06:09:38;;;;;;;43.40;25.10;;;0.50;99.90;;;;;;5036847;28;20652;-80
2021/12/07 06:12:04;;;;;;;43.00;24.87;;;0.50;99.90;;;;;;5013440;28;20592;-81
2021/12/07 06:14:34;;;;;;;44.27;25.53;;;0.50;99.90;;;;;;5018831;28;20171;-80
2021/12/07 06:17:00;;;;;;;46.23;25.13;;;0.60;99.90;;;;;;5014793;28;20225;-79
2021/12/07 06:19:27;;;;;;;43.07;24.77;;;0.60;99.90;;;;;;5015842;28;20167;-79
2021/12/07 06:21:53;;;;;;;39.80;23.93;;;0.60;99.90;;;;;;5014535;28;20170;-79
2021/12/07 06:24:31;;;;;;;43.60;26.17;;;0.60;99.90;;;;;;5014217;28;20170;-79
2021/12/07 06:27:17;;;;;;;43.47;24.00;;;0.60;99.90;;;;;;4999268;28;20218;-78
2021/12/07 06:29:46;;;;;;;40.60;23.43;;;0.70;99.90;;;;;;5010694;28;20270;-79
2021/12/07 06:32:11;;;;;;;44.97;24.87;;;0.60;99.90;;;;;;5031704;28;20166;-79
2021/12/07 06:34:42;;;;;;;40.93;23.63;;;0.60;99.90;;;;;;5032244;28;20213;-79
2021/12/07 06:37:08;;;;;;;44.17;24.67;;;0.70;99.90;;;;;;5014274;28;20206;-79
2021/12/07 06:39:34;;;;;;;38.13;23.27;;;0.80;99.90;;;;;;5008884;28;20165;-79
2021/12/07 06:42:00;;;;;;;41.60;24.83;;;0.70;99.90;;;;;;5014625;28;20178;-79
2021/12/07 06:44:27;;;;;;;38.03;23.20;;;0.60;99.90;;;;;;5026436;28;20183;-79
2021/12/07 06:46:53;;;;;;;39.30;24.00;;;0.70;99.90;;;;;;5014880;28;20198;-79
2021/12/07 06:49:19;;;;;;;41.47;23.37;;;0.70;99.90;;;;;;5030163;28;20181;-81
2021/12/07 06:51:47;;;;;;;42.40;23.67;;;0.60;99.90;;;;;;5017516;28;20190;-79
2021/12/07 06:54:13;;;;;;;39.13;23.80;;;0.60;99.90;;;;;;5028759;28;20186;-81
2021/12/07 06:56:46;;;;;;;41.33;23.37;;;0.60;99.90;;;;;;5017485;28;20213;-80
2021/12/07 06:59:12;;;;;;;41.27;23.37;;;0.60;99.90;;;;;;5015004;28;20179;-79
2021/12/07 07:01:38;;;;;;;39.30;22.50;;;0.60;99.90;;;;;;5014413;28;20266;-80
2021/12/07 07:04:04;;;;;;;38.27;22.07;;;0.70;99.90;;;;;;5016480;28;20166;-79
2021/12/07 07:06:30;;;;;;;37.07;22.17;;;0.70;99.90;;;;;;5016813;28;20223;-79
2021/12/07 07:08:58;;;;;;;38.00;22.50;;;0.70;99.90;;;;;;5017236;28;20252;-80
2021/12/07 07:11:28;;;;;;;37.23;21.67;;;0.80;99.90;;;;;;5013281;28;20528;-80
2021/12/07 07:13:57;;;;;;;38.80;21.60;;;0.80;99.90;;;;;;5040801;28;20182;-79
2021/12/07 07:16:23;;;;;;;43.23;22.13;;;0.80;99.90;;;;;;5013237;28;20743;-79
2021/12/07 07:18:56;;;;;;;37.80;23.03;;;0.70;99.90;;;;;;5008458;28;20178;-79
2021/12/07 07:21:28;;;;;;;39.10;21.50;;;0.70;99.90;;;;;;5013267;28;20179;-81
2021/12/07 07:23:54;;;;;;;36.67;21.83;;;0.70;99.90;;;;;;5012167;28;20206;-79
2021/12/07 07:26:20;;;;;;;37.50;22.40;;;0.70;99.90;;;;;;5022983;28;20553;-80
2021/12/07 07:28:46;;;;;;;38.97;22.33;;;0.70;99.90;;;;;;5039249;28;20182;-81
2021/12/07 07:31:25;;;;;;;39.17;22.03;;;0.70;99.90;;;;;;5012798;28;20185;-80
2021/12/07 07:33:53;;;;;;;38.73;22.40;;;0.70;99.90;;;;;;5013459;28;20178;-79
2021/12/07 07:36:22;;;;;;;35.30;21.53;;;0.70;99.90;;;;;;5013076;28;20233;-80
2021/12/07 07:38:48;;;;;;;41.43;22.43;;;0.70;99.90;;;;;;5012384;28;20558;-80
2021/12/07 07:41:22;;;;;;;37.27;21.97;;;0.70;99.90;;;;;;5005375;28;20177;-80
2021/12/07 07:43:48;;;;;;;36.00;21.50;;;0.70;99.90;;;;;;5010789;28;20205;-79
2021/12/07 07:46:16;;;;;;;37.00;22.23;;;0.70;99.90;;;;;;5008300;28;20613;-79
2021/12/07 07:48:49;;;;;;;34.57;21.33;;;0.70;99.90;;;;;;5021733;28;20209;-80
2021/12/07 07:51:15;;;;;;;43.40;23.10;;;0.70;99.90;;;;;;5010642;28;20204;-79
2021/12/07 07:53:41;;;;;;;41.37;23.40;;;0.70;99.90;;;;;;5016908;28;20625;-79
2021/12/07 07:56:07;;;;;;;39.30;22.47;;;0.60;99.90;;;;;;5014647;28;20210;-80
2021/12/07 07:58:33;;;;;;;39.97;23.20;;;0.70;99.90;;;;;;5015307;28;20233;-81
2021/12/07 08:01:04;;;;;;;38.40;21.80;;;0.80;99.90;;;;;;5014986;28;20178;-80
2021/12/07 08:03:30;;;;;;;36.00;21.70;;;0.80;99.90;;;;;;5028316;28;20177;-79
2021/12/07 08:05:56;;;;;;;39.57;22.57;;;1.00;99.90;;;;;;5018068;28;20196;-81
2021/12/07 08:08:24;;;;;;;37.30;22.07;;;0.90;99.90;;;;;;5013174;28;20174;-80
2021/12/07 08:10:51;;;;;;;41.40;22.57;;;0.80;99.90;;;;;;5015005;28;20180;-80
2021/12/07 08:13:20;;;;;;;37.90;21.97;;;0.70;99.90;;;;;;5018455;28;20179;-79
2021/12/07 08:15:49;;;;;;;43.47;24.07;;;0.70;99.90;;;;;;5015231;28;20202;-80
2021/12/07 08:18:17;;;;;;;39.13;22.03;;;0.70;99.90;;;;;;5023749;28;20203;-79
2021/12/07 08:20:44;;;;;;;40.63;22.77;;;0.70;99.90;;;;;;5035271;28;20637;-79
2021/12/07 08:23:13;;;;;;;38.13;22.90;;;0.70;99.90;;;;;;5016786;28;20648;-79
2021/12/07 08:25:43;;;;;;;40.73;23.77;;;0.70;99.90;;;;;;5017372;28;20182;-79
2021/12/07 08:28:12;;;;;;;38.97;22.27;;;0.70;99.90;;;;;;5022639;28;20184;-79
2021/12/07 08:30:41;;;;;;;39.33;21.70;;;0.70;99.90;;;;;;5018863;28;20213;-80
2021/12/07 08:33:11;;;;;;;40.37;23.67;;;0.70;99.90;;;;;;5031726;28;20175;-79
2021/12/07 08:35:37;;;;;;;42.00;23.53;;;0.70;99.90;;;;;;5023587;28;20198;-78
2021/12/07 08:38:04;;;;;;;40.73;22.57;;;0.70;99.90;;;;;;5027279;28;20225;-78
2021/12/07 08:40:42;;;;;;;37.47;20.10;;;0.70;99.90;;;;;;5036902;28;20170;-79
2021/12/07 08:43:12;;;;;;;42.30;22.87;;;0.70;99.90;;;;;;5013701;28;20193;-79
2021/12/07 08:45:52;;;;;;;42.37;23.30;;;0.80;99.90;;;;;;5011775;28;20183;-79
2021/12/07 08:48:18;;;;;;;40.43;22.33;;;0.80;99.90;;;;;;5031280;28;20209;-79
2021/12/07 08:50:57;;;;;;;42.20;22.97;;;0.80;99.90;;;;;;5015725;28;20266;-79
2021/12/07 08:53:24;;;;;;;40.07;22.93;;;1.00;99.90;;;;;;5006359;28;20185;-81
2021/12/07 09:01:22;;;;;;;42.43;22.13;;;1.10;99.90;;;;;;5024532;28;20181;-80
2021/12/07 09:03:50;;;;;;;40.07;23.27;;;1.10;99.90;;;;;;5010466;28;20274;-80
2021/12/07 09:06:16;;;;;;;39.90;22.57;;;1.10;99.90;;;;;;5039608;28;20263;-79
2021/12/07 09:08:42;;;;;;;40.50;22.70;;;1.10;99.90;;;;;;5015309;28;20578;-80
2021/12/07 09:11:10;;;;;;;43.67;22.80;;;1.10;99.90;;;;;;5010745;28;20191;-80
2021/12/07 09:13:37;;;;;;;38.97;22.10;;;1.10;99.90;;;;;;5020766;28;20185;-79
2021/12/07 09:16:04;;;;;;;38.33;23.03;;;1.10;99.90;;;;;;5041268;28;20707;-79
2021/12/07 09:18:31;;;;;;;40.60;21.83;;;1.10;99.90;;;;;;5038944;28;20171;-80
2021/12/07 09:20:58;;;;;;;40.50;22.77;;;1.00;99.90;;;;;;5023376;28;20170;-79
2021/12/07 09:23:26;;;;;;;38.57;22.47;;;1.00;99.90;;;;;;5009229;28;20178;-80
2021/12/07 09:25:53;;;;;;;40.40;23.50;;;0.90;99.90;;;;;;5013543;28;20209;-79
2021/12/07 09:28:20;;;;;;;38.93;22.80;;;1.00;99.90;;;;;;5023736;28;20178;-79
2021/12/07 09:30:51;;;;;;;42.20;23.40;;;1.00;99.90;;;;;;5024072;28;20198;-81
2021/12/07 09:33:20;;;;;;;43.03;23.80;;;0.90;99.90;;;;;;5001319;28;20174;-81
2021/12/07 09:35:52;;;;;;;42.27;23.67;;;0.90;99.90;;;;;;5020087;28;20208;-80
2021/12/07 09:38:18;;;;;;;42.23;24.80;;;1.00;99.90;;;;;;5021357;28;20191;-79
2021/12/07 09:40:45;;;;;;;42.10;22.77;;;1.00;99.90;;;;;;5011903;28;20177;-79
2021/12/07 09:43:18;;;;;;;41.03;23.13;;;1.00;99.90;;;;;;5021723;28;20167;-79
2021/12/07 09:45:44;;;;;;;44.80;24.00;;;1.00;99.90;;;;;;5010793;28;20210;-79
2021/12/07 09:48:11;;;;;;;39.57;23.03;;;1.10;99.90;;;;;;5009843;28;20179;-79
2021/12/07 09:50:40;;;;;;;43.57;24.53;;;1.20;99.90;;;;;;5023932;28;20185;-79
2021/12/07 09:53:09;;;;;;;42.50;23.70;;;1.00;99.90;;;;;;5012043;28;20186;-78
2021/12/07 09:55:37;;;;;;;42.50;23.93;;;1.00;99.90;;;;;;5019294;28;20197;-80
2021/12/07 09:58:03;;;;;;;46.83;24.13;;;1.10;99.90;;;;;;5018175;28;20182;-79
2021/12/07 10:00:37;;;;;;;43.03;23.97;;;1.20;99.90;;;;;;5012244;28;20181;-80
2021/12/07 10:03:03;;;;;;;42.67;24.30;;;1.30;99.90;;;;;;5015294;28;20274;-80
2021/12/07 10:05:35;;;;;;;37.83;22.63;;;1.30;99.90;;;;;;5018876;28;20228;-79
2021/12/07 10:08:12;;;;;;;44.53;24.17;;;1.30;99.90;;;;;;5016016;28;20178;-80
2021/12/07 10:10:47;;;;;;;37.63;22.57;;;1.30;99.90;;;;;;5018668;28;20174;-80
2021/12/07 10:13:17;;;;;;;39.87;23.50;;;1.40;99.90;;;;;;5016139;28;20174;-79
2021/12/07 10:15:45;;;;;;;40.30;23.97;;;1.50;99.90;;;;;;5008923;28;20682;-79
2021/12/07 10:18:19;;;;;;;38.57;23.23;;;1.50;99.90;;;;;;5017302;28;20507;-79
2021/12/07 10:20:59;;;;;;;42.13;23.60;;;1.40;99.90;;;;;;5009837;28;20174;-79
2021/12/07 10:23:50;;;;;;;40.43;23.97;;;1.30;99.90;;;;;;5026577;28;20670;-80
2021/12/07 10:26:25;;;;;;;37.60;22.53;;;1.20;99.90;;;;;;5021586;28;20569;-79
2021/12/07 10:29:00;;;;;;;41.10;23.93;;;1.20;99.90;;;;;;5016417;28;20212;-79
2021/12/07 10:31:49;;;;;;;39.43;23.13;;;1.10;99.90;;;;;;5003814;28;20205;-80
2021/12/07 10:34:20;;;;;;;39.30;22.97;;;1.20;99.90;;;;;;5014067;28;20167;-79
2021/12/07 10:37:15;;;;;;;42.03;23.07;;;1.20;99.90;;;;;;5024394;28;20198;-79
2021/12/07 10:40:11;;;;;;;43.17;24.00;;;1.20;99.90;;;;;;5026786;28;20187;-79
2021/12/07 10:42:37;;;;;;;38.90;22.80;;;1.20;99.90;;;;;;5018501;28;20202;-79
2021/12/07 10:45:10;;;;;;;42.03;24.03;;;1.20;99.90;;;;;;5007202;28;20182;-80
2021/12/07 10:47:36;;;;;;;40.40;23.73;;;1.30;99.90;;;;;;5026048;28;20206;-79
2021/12/07 10:50:09;;;;;;;38.60;22.63;;;1.40;99.90;;;;;;5017773;28;20181;-79
2021/12/07 10:52:40;;;;;;;39.73;22.00;;;1.50;99.90;;;;;;5011159;28;20197;-80
2021/12/07 10:55:26;;;;;;;39.57;22.90;;;1.50;99.90;;;;;;5017814;28;20203;-79
2021/12/07 10:58:01;;;;;;;39.03;23.27;;;1.50;99.90;;;;;;5026395;28;20626;-80
2021/12/07 11:00:29;;;;;;;37.70;22.93;;;1.40;99.90;;;;;;4999274;28;20181;-78
2021/12/07 11:03:29;;;;;;;37.43;22.00;;;1.50;99.90;;;;;;5013516;28;20175;-79
2021/12/07 11:05:55;;;;;;;37.67;22.47;;;1.50;99.90;;;;;;5012136;28;20221;-79
2021/12/07 11:08:29;;;;;;;71.50;34.17;;;1.60;99.90;;;;;;5023920;28;20182;-78
2021/12/07 11:10:55;;;;;;;43.57;25.00;;;1.60;99.90;;;;;;5030892;28;20517;-78
2021/12/07 11:13:27;;;;;;;44.47;25.23;;;1.70;99.90;;;;;;5002641;28;20198;-78
2021/12/07 11:16:03;;;;;;;45.30;24.53;;;1.80;99.90;;;;;;5021563;28;20305;-79
2021/12/07 11:18:48;;;;;;;40.83;23.63;;;1.90;99.90;;;;;;5009810;28;20198;-82
2021/12/07 11:21:31;;;;;;;40.23;23.17;;;1.80;99.90;;;;;;5037158;28;20186;-79
2021/12/07 11:24:01;;;;;;;39.83;23.37;;;1.80;99.90;;;;;;5013865;28;20179;-78
2021/12/07 11:31:49;;;;;;;40.73;22.73;;;1.70;99.90;;;;;;5047944;28;20184;-79
2021/12/07 11:34:36;;;;;;;42.80;24.73;;;1.70;99.90;;;;;;5034159;28;20208;-79
2021/12/07 11:37:07;;;;;;;37.27;22.53;;;1.70;99.90;;;;;;5050193;28;20214;-78
2021/12/07 11:39:47;;;;;;;40.13;23.57;;;1.70;99.90;;;;;;5011766;28;20190;-78
2021/12/07 11:42:17;;;;;;;38.70;22.67;;;1.70;99.90;;;;;;5021313;28;20175;-78
2021/12/07 11:44:54;;;;;;;39.70;22.83;;;1.70;99.90;;;;;;5019299;28;20185;-80
2021/12/07 11:47:27;;;;;;;39.10;22.87;;;1.80;99.90;;;;;;5021070;28;20189;-80
2021/12/07 11:50:11;;;;;;;38.17;22.23;;;1.90;99.90;;;;;;5026038;28;20205;-79
2021/12/07 11:52:37;;;;;;;36.67;22.10;;;2.00;99.90;;;;;;5030951;28;20534;-79
2021/12/07 11:55:04;;;;;;;37.93;23.07;;;2.00;99.90;;;;;;5036894;28;20210;-79
2021/12/07 11:57:29;;;;;;;39.53;23.03;;;1.90;99.90;;;;;;5027313;28;20601;-79
2021/12/07 11:59:57;;;;;;;42.00;22.90;;;1.90;99.90;;;;;;5028890;28;20179;-79
2021/12/07 12:02:24;;;;;;;40.03;22.67;;;1.80;99.90;;;;;;5011942;28;20253;-80
2021/12/07 12:04:50;;;;;;;38.93;22.53;;;1.80;99.90;;;;;;5045733;28;20187;-80
2021/12/07 12:07:19;;;;;;;36.57;21.73;;;1.90;99.90;;;;;;5021671;28;20221;-80
2021/12/07 12:09:49;;;;;;;35.30;22.47;;;2.00;99.90;;;;;;5025485;28;20215;-80
2021/12/07 12:12:53;;;;;;;37.33;21.27;;;2.00;99.90;;;;;;5024061;28;20186;-79
2021/12/07 12:15:46;;;;;;;39.13;22.47;;;2.00;99.90;;;;;;5010187;28;20204;-80
2021/12/07 12:18:36;;;;;;;39.00;22.97;;;2.10;99.90;;;;;;5014405;28;20183;-78
2021/12/07 12:21:23;;;;;;;42.93;23.90;;;2.10;99.90;;;;;;5026240;28;20175;-78
2021/12/07 12:24:26;;;;;;;39.23;23.47;;;2.00;99.90;;;;;;5014001;28;20186;-81
2021/12/07 12:27:16;;;;;;;39.13;22.50;;;2.00;99.90;;;;;;5010904;28;20190;-79
2021/12/07 12:29:46;;;;;;;38.67;22.43;;;2.10;99.90;;;;;;5039095;28;20178;-78
2021/12/07 12:32:35;;;;;;;38.83;22.03;;;2.10;99.90;;;;;;5015214;28;20635;-79
2021/12/07 12:35:04;;;;;;;40.00;22.77;;;2.10;99.90;;;;;;5014150;28;20613;-79
2021/12/07 12:37:32;;;;;;;37.90;22.43;;;2.10;99.90;;;;;;5017069;28;20194;-79
2021/12/07 12:40:26;;;;;;;38.83;22.37;;;2.10;99.90;;;;;;5011980;28;20248;-81
2021/12/07 12:42:57;;;;;;;38.37;23.00;;;2.20;99.90;;;;;;5025901;28;20166;-79
2021/12/07 12:45:35;;;;;;;38.07;22.50;;;2.10;99.90;;;;;;5001649;28;20178;-79
2021/12/07 12:48:01;;;;;;;36.30;22.93;;;2.00;99.90;;;;;;5020512;28;20182;-80
2021/12/07 12:50:49;;;;;;;40.47;23.90;;;2.00;99.90;;;;;;5029201;28;20201;-79
2021/12/07 12:53:25;;;;;;;38.20;22.93;;;2.00;99.90;;;;;;5005006;28;20261;-79
2021/12/07 12:56:24;;;;;;;38.20;22.67;;;2.00;99.90;;;;;;5017599;28;20200;-78
2021/12/07 12:58:54;;;;;;;39.03;22.53;;;2.20;99.90;;;;;;5002101;28;20213;-79
2021/12/07 13:01:46;;;;;;;40.80;24.07;;;2.10;99.90;;;;;;5014722;28;20182;-78
2021/12/07 13:04:26;;;;;;;37.40;23.67;;;2.00;99.90;;;;;;5018996;28;20232;-79
2021/12/07 13:07:23;;;;;;;38.43;23.53;;;2.00;99.90;;;;;;5006398;28;20206;-79
2021/12/07 13:09:59;;;;;;;38.73;22.83;;;2.10;99.90;;;;;;5028284;28;20246;-79
2021/12/07 13:12:39;;;;;;;38.40;22.40;;;2.10;99.90;;;;;;5017293;28;20272;-79
2021/12/07 13:15:16;;;;;;;39.63;23.33;;;2.00;99.90;;;;;;5005469;28;20206;-79
2021/12/07 13:17:48;;;;;;;38.37;22.07;;;2.00;99.90;;;;;;5007545;28;20205;-79
2021/12/07 13:20:14;;;;;;;40.40;23.87;;;1.90;99.90;;;;;;5005225;28;20654;-79
2021/12/07 13:22:54;;;;;;;38.47;22.87;;;1.90;99.90;;;;;;5012819;28;20175;-82
2021/12/07 13:25:40;;;;;;;41.43;23.50;;;2.00;99.90;;;;;;5023748;28;20186;-79
2021/12/07 13:28:12;;;;;;;41.23;23.80;;;1.90;99.90;;;;;;5017944;28;20174;-79
2021/12/07 13:30:54;;;;;;;40.90;24.50;;;1.80;99.90;;;;;;5018008;28;20178;-78
2021/12/07 13:33:35;;;;;;;37.87;22.30;;;1.80;99.90;;;;;;5025927;28;20194;-79
2021/12/07 13:36:28;;;;;;;36.73;22.43;;;1.80;99.90;;;;;;5003190;28;20208;-79
2021/12/07 13:39:00;;;;;;;41.17;23.37;;;1.80;99.90;;;;;;5016684;28;20183;-79
2021/12/07 13:41:33;;;;;;;36.30;22.00;;;1.80;99.90;;;;;;5025049;28;20185;-79
2021/12/07 13:43:59;;;;;;;36.43;22.50;;;1.80;99.90;;;;;;5015339;28;20174;-79
2021/12/07 13:46:27;;;;;;;35.73;22.50;;;1.90;99.90;;;;;;5016820;28;20209;-79
2021/12/07 13:49:05;;;;;;;35.83;22.40;;;1.90;99.90;;;;;;5035738;28;20697;-79
2021/12/07 13:51:31;;;;;;;42.37;23.70;;;2.00;99.90;;;;;;5022221;28;20236;-79
2021/12/07 13:54:00;;;;;;;37.97;22.33;;;1.90;99.90;;;;;;5016852;28;20175;-79
2021/12/07 13:56:32;;;;;;;42.17;22.87;;;1.90;99.90;;;;;;5006982;28;20210;-78
2021/12/07 13:59:06;;;;;;;37.97;22.27;;;1.90;99.90;;;;;;5025439;28;20181;-79
2021/12/07 14:01:34;;;;;;;37.23;22.97;;;1.90;99.90;;;;;;5013126;28;20197;-79
2021/12/07 14:04:02;;;;;;;41.80;23.33;;;2.00;99.90;;;;;;5027804;28;20240;-80
2021/12/07 14:06:29;;;;;;;41.77;24.20;;;2.00;99.90;;;;;;5018732;28;20244;-79
2021/12/07 14:09:09;;;;;;;38.13;22.57;;;1.90;99.90;;;;;;5011873;28;20190;-78
2021/12/07 14:11:38;;;;;;;37.07;22.83;;;1.90;99.90;;;;;;5011151;28;20183;-78
2021/12/07 14:14:14;;;;;;;39.73;22.63;;;1.90;99.90;;;;;;5003828;28;20259;-77
2021/12/07 14:16:42;;;;;;;39.17;22.67;;;1.80;99.90;;;;;;5016031;28;20213;-79
2021/12/07 14:19:08;;;;;;;40.17;21.83;;;1.80;99.90;;;;;;5021994;28;20207;-80
2021/12/07 14:21:33;;;;;;;41.17;24.20;;;1.70;99.90;;;;;;5031786;28;20209;-79
2021/12/07 14:24:15;;;;;;;37.37;22.80;;;1.80;99.90;;;;;;5014830;28;20182;-79
2021/12/07 14:26:48;;;;;;;38.33;23.47;;;1.90;99.90;;;;;;5024558;28;20653;-79
2021/12/07 14:29:20;;;;;;;36.23;22.60;;;2.00;99.90;;;;;;5013803;28;20276;-79